Time;durP1;ratioP1;P1;durP2;ratioP2;P2;SDS_P1;SDS_P2;PMS_P1;PMS_P2;Temp;Humidity;BMP_temperature;BMP_pressure;BME280_temperature;BME280_humidity;BME280_pressure;Samples;Min_cycle;Max_cycle;Signal;HPM_P1;HPM_P2
2022/05/08 00:02:25;;;;;;;14.05;5.22;;;;;;;;;;5025515;28;20046;-59
2022/05/08 00:04:52;;;;;;;16.67;4.85;;;;;;;;;;5018471;28;20048;-59
2022/05/08 00:07:19;;;;;;;18.13;4.40;;;;;;;;;;5023924;28;20025;-59
2022/05/08 00:09:45;;;;;;;10.48;4.32;;;;;;;;;;5021988;28;20036;-58
2022/05/08 00:12:11;;;;;;;25.98;4.78;;;;;;;;;;5017442;28;20041;-59
2022/05/08 00:14:40;;;;;;;11.73;4.97;;;;;;;;;;5023553;28;20041;-59
2022/05/08 00:17:06;;;;;;;18.17;4.88;;;;;;;;;;5020459;28;20048;-58
2022/05/08 00:19:32;;;;;;;21.60;5.22;;;;;;;;;;5020609;28;20428;-58
2022/05/08 00:21:58;;;;;;;11.95;4.78;;;;;;;;;;5016934;28;20477;-58
2022/05/08 00:24:23;;;;;;;12.75;4.20;;;;;;;;;;5020250;28;20033;-58
2022/05/08 00:26:50;;;;;;;15.18;4.82;;;;;;;;;;5020517;28;20295;-58
2022/05/08 00:29:15;;;;;;;16.15;4.32;;;;;;;;;;5029886;28;20033;-58
2022/05/08 00:31:42;;;;;;;11.68;3.67;;;;;;;;;;5017430;28;20534;-59
2022/05/08 00:34:08;;;;;;;13.25;3.60;;;;;;;;;;5021493;28;20037;-58
2022/05/08 00:36:34;;;;;;;11.15;3.67;;;;;;;;;;5024723;28;20034;-59
2022/05/08 00:38:59;;;;;;;13.68;3.45;;;;;;;;;;5024854;28;20652;-59
2022/05/08 00:41:25;;;;;;;6.47;3.30;;;;;;;;;;5019448;28;20045;-58
2022/05/08 00:43:51;;;;;;;12.18;4.13;;;;;;;;;;5025435;28;20033;-59
2022/05/08 00:46:16;;;;;;;10.25;3.40;;;;;;;;;;5020110;28;20442;-58
2022/05/08 00:48:43;;;;;;;9.43;3.20;;;;;;;;;;5018899;28;20044;-58
2022/05/08 00:51:11;;;;;;;15.55;4.05;;;;;;;;;;5019540;28;20033;-58
2022/05/08 00:53:38;;;;;;;9.85;3.97;;;;;;;;;;5024309;28;20083;-58
2022/05/08 00:56:12;;;;;;;12.13;3.60;;;;;;;;;;5018544;28;20318;-58
2022/05/08 00:58:39;;;;;;;12.65;3.22;;;;;;;;;;5016591;28;20080;-58
2022/05/08 01:01:06;;;;;;;10.75;3.58;;;;;;;;;;5022494;28;20071;-58
2022/05/08 01:03:32;;;;;;;6.28;2.80;;;;;;;;;;5022957;28;20037;-58
2022/05/08 01:06:02;;;;;;;11.80;3.05;;;;;;;;;;5024331;28;20025;-59
2022/05/08 01:08:28;;;;;;;17.50;3.47;;;;;;;;;;5023485;28;20045;-59
2022/05/08 01:10:54;;;;;;;9.07;3.15;;;;;;;;;;5011326;28;20030;-59
2022/05/08 01:13:19;;;;;;;11.73;2.90;;;;;;;;;;5017717;28;20536;-59
2022/05/08 01:15:46;;;;;;;9.38;3.13;;;;;;;;;;5017199;28;20465;-59
2022/05/08 01:18:13;;;;;;;9.90;3.13;;;;;;;;;;5014696;28;20057;-59
2022/05/08 01:20:40;;;;;;;11.45;3.53;;;;;;;;;;5020921;28;20043;-58
2022/05/08 01:23:07;;;;;;;16.38;4.10;;;;;;;;;;5023578;28;20546;-58
2022/05/08 01:25:44;;;;;;;17.38;3.03;;;;;;;;;;5017654;28;20417;-59
2022/05/08 01:28:11;;;;;;;12.23;3.42;;;;;;;;;;5017187;28;20479;-59
2022/05/08 01:30:39;;;;;;;16.88;4.05;;;;;;;;;;5020019;28;20037;-58
2022/05/08 01:33:05;;;;;;;8.40;3.25;;;;;;;;;;5016727;28;20025;-58
2022/05/08 01:35:31;;;;;;;14.70;4.18;;;;;;;;;;5021410;28;20329;-59
2022/05/08 01:37:56;;;;;;;15.60;3.90;;;;;;;;;;5025573;28;20321;-58
2022/05/08 01:40:22;;;;;;;11.93;4.38;;;;;;;;;;5013768;28;20033;-59
2022/05/08 01:42:47;;;;;;;13.93;3.90;;;;;;;;;;5025250;28;20095;-58
2022/05/08 01:45:13;;;;;;;16.58;4.18;;;;;;;;;;5022030;28;20030;-59
2022/05/08 01:50:23;;;;;;;17.77;5.40;;;;;;;;;;5025305;28;20068;-59
2022/05/08 01:52:50;;;;;;;12.45;4.90;;;;;;;;;;5035270;28;20056;-58
2022/05/08 01:55:15;;;;;;;18.52;5.88;;;;;;;;;;5020528;28;20030;-59
2022/05/08 01:57:42;;;;;;;16.02;5.18;;;;;;;;;;5019200;28;20443;-59
2022/05/08 02:00:08;;;;;;;19.15;5.93;;;;;;;;;;5013979;28;20040;-58
2022/05/08 02:02:34;;;;;;;19.15;5.20;;;;;;;;;;5024244;28;20037;-59
2022/05/08 02:05:01;;;;;;;13.23;4.90;;;;;;;;;;5022937;28;20252;-58
2022/05/08 02:07:26;;;;;;;9.57;4.18;;;;;;;;;;5026113;28;20424;-59
2022/05/08 02:09:52;;;;;;;10.57;4.70;;;;;;;;;;5028008;28;20033;-59
2022/05/08 02:12:17;;;;;;;11.55;3.95;;;;;;;;;;5020932;28;20040;-59
2022/05/08 02:14:43;;;;;;;11.30;4.55;;;;;;;;;;5019645;28;20049;-58
2022/05/08 02:17:10;;;;;;;16.60;5.30;;;;;;;;;;5021000;28;20029;-59
2022/05/08 02:19:35;;;;;;;14.07;3.92;;;;;;;;;;5020165;28;20026;-58
2022/05/08 02:22:01;;;;;;;11.23;4.32;;;;;;;;;;5021744;28;20033;-58
2022/05/08 02:24:26;;;;;;;11.35;4.30;;;;;;;;;;5020957;28;20071;-58
2022/05/08 02:26:52;;;;;;;14.90;4.93;;;;;;;;;;5023854;28;20561;-58
2022/05/08 02:29:18;;;;;;;12.23;4.38;;;;;;;;;;5023644;28;20033;-61
2022/05/08 02:31:44;;;;;;;10.23;4.13;;;;;;;;;;5022132;28;20086;-58
2022/05/08 02:34:09;;;;;;;14.20;4.30;;;;;;;;;;5019572;28;20040;-58
2022/05/08 02:36:35;;;;;;;10.82;3.92;;;;;;;;;;5020927;28;20076;-58
2022/05/08 02:39:00;;;;;;;17.17;4.78;;;;;;;;;;5024206;28;20065;-58
2022/05/08 02:41:25;;;;;;;9.80;3.70;;;;;;;;;;5026853;28;20423;-58
2022/05/08 02:43:51;;;;;;;14.52;4.20;;;;;;;;;;5020907;28;20033;-58
2022/05/08 02:46:16;;;;;;;12.85;4.53;;;;;;;;;;5018277;28;20044;-58
2022/05/08 02:48:42;;;;;;;9.93;3.65;;;;;;;;;;5027719;28;20623;-58
2022/05/08 02:51:08;;;;;;;7.28;3.85;;;;;;;;;;5027931;28;20030;-58
2022/05/08 02:53:34;;;;;;;16.42;4.85;;;;;;;;;;5026092;28;20455;-58
2022/05/08 02:58:44;;;;;;;9.48;3.33;;;;;;;;;;5020671;28;20032;-58
2022/05/08 03:01:09;;;;;;;14.43;4.43;;;;;;;;;;5026914;28;20025;-59
2022/05/08 03:03:35;;;;;;;11.38;3.40;;;;;;;;;;5027203;28;20506;-58
2022/05/08 03:06:01;;;;;;;7.15;3.28;;;;;;;;;;5021321;28;20024;-58
2022/05/08 03:08:27;;;;;;;8.43;3.42;;;;;;;;;;5022283;28;20610;-58
2022/05/08 03:13:38;;;;;;;7.75;3.97;;;;;;;;;;5020921;28;20511;-58
2022/05/08 03:16:08;;;;;;;9.60;3.60;;;;;;;;;;5022248;28;20401;-59
2022/05/08 03:18:34;;;;;;;5.80;3.20;;;;;;;;;;5022783;28;20476;-58
2022/05/08 03:21:00;;;;;;;10.70;3.72;;;;;;;;;;5019891;28;20033;-58
2022/05/08 03:23:27;;;;;;;13.20;3.40;;;;;;;;;;5024504;28;20041;-58
2022/05/08 03:25:53;;;;;;;10.52;3.67;;;;;;;;;;5022065;28;20029;-58
2022/05/08 03:28:18;;;;;;;7.13;3.45;;;;;;;;;;5023959;28;20071;-58
2022/05/08 03:30:44;;;;;;;16.13;3.75;;;;;;;;;;5022944;28;20053;-58
2022/05/08 03:33:11;;;;;;;13.38;3.40;;;;;;;;;;5022061;28;20494;-58
2022/05/08 03:35:40;;;;;;;9.50;3.50;;;;;;;;;;5026189;28;20036;-58
2022/05/08 03:38:07;;;;;;;13.90;4.35;;;;;;;;;;5022179;28;20021;-59
2022/05/08 03:40:33;;;;;;;17.60;3.63;;;;;;;;;;5024283;28;20458;-58
2022/05/08 03:42:59;;;;;;;7.65;3.50;;;;;;;;;;5027357;28;20037;-58
2022/05/08 03:45:25;;;;;;;7.78;3.20;;;;;;;;;;5024397;28;20044;-58
2022/05/08 03:47:52;;;;;;;13.27;3.85;;;;;;;;;;5024242;28;20020;-58
2022/05/08 03:50:21;;;;;;;7.18;3.30;;;;;;;;;;5021790;28;20034;-58
2022/05/08 03:52:47;;;;;;;10.05;3.28;;;;;;;;;;5019225;28;20060;-58
2022/05/08 03:55:17;;;;;;;7.80;2.72;;;;;;;;;;5026169;28;20408;-58
2022/05/08 03:57:43;;;;;;;8.35;3.25;;;;;;;;;;5022223;28;20068;-58
2022/05/08 04:00:10;;;;;;;5.65;2.40;;;;;;;;;;5018594;28;20017;-58
2022/05/08 04:02:39;;;;;;;6.65;2.53;;;;;;;;;;5021848;28;20069;-58
2022/05/08 04:05:06;;;;;;;9.93;2.90;;;;;;;;;;5020760;28;20393;-58
2022/05/08 04:07:32;;;;;;;9.93;2.85;;;;;;;;;;5023692;28;20029;-59
2022/05/08 04:09:58;;;;;;;5.53;2.17;;;;;;;;;;5028919;28;20397;-58
2022/05/08 04:12:25;;;;;;;7.03;2.55;;;;;;;;;;5017468;28;20568;-58
2022/05/08 04:14:50;;;;;;;5.32;3.00;;;;;;;;;;5025411;28;20061;-59
2022/05/08 04:17:16;;;;;;;8.55;2.92;;;;;;;;;;5021537;28;20136;-58
2022/05/08 04:19:42;;;;;;;9.18;3.10;;;;;;;;;;5023437;28;20033;-58
2022/05/08 04:24:52;;;;;;;4.25;2.25;;;;;;;;;;5025976;28;20632;-58
2022/05/08 04:27:18;;;;;;;7.00;2.05;;;;;;;;;;5030552;28;20030;-58
2022/05/08 04:29:44;;;;;;;5.15;2.67;;;;;;;;;;5018643;28;20407;-59
2022/05/08 04:32:10;;;;;;;5.38;2.45;;;;;;;;;;5022446;28;20120;-58
2022/05/08 04:34:36;;;;;;;4.75;2.88;;;;;;;;;;5028732;28;20446;-58
2022/05/08 04:37:03;;;;;;;7.32;2.70;;;;;;;;;;5022642;28;20033;-58
2022/05/08 04:39:28;;;;;;;6.05;2.65;;;;;;;;;;5028816;28;20041;-58
2022/05/08 04:41:54;;;;;;;9.75;2.50;;;;;;;;;;5023678;28;20025;-58
2022/05/08 04:44:20;;;;;;;9.02;2.97;;;;;;;;;;5015213;28;20073;-58
2022/05/08 04:46:45;;;;;;;5.55;2.85;;;;;;;;;;5017823;28;20042;-58
2022/05/08 04:49:10;;;;;;;9.73;3.13;;;;;;;;;;5021461;28;20408;-59
2022/05/08 04:51:36;;;;;;;11.38;3.30;;;;;;;;;;5019934;28;20041;-59
2022/05/08 04:54:02;;;;;;;7.65;3.17;;;;;;;;;;5024645;28;20033;-59
2022/05/08 04:56:29;;;;;;;6.57;3.10;;;;;;;;;;5024679;28;20029;-59
2022/05/08 04:58:55;;;;;;;6.45;2.90;;;;;;;;;;5020541;28;20029;-59
2022/05/08 05:01:21;;;;;;;9.20;3.22;;;;;;;;;;5022048;28;20075;-59
2022/05/08 05:03:47;;;;;;;8.35;3.22;;;;;;;;;;5024019;28;20033;-58
2022/05/08 05:06:13;;;;;;;7.13;3.38;;;;;;;;;;5023424;28;20025;-58
2022/05/08 05:08:38;;;;;;;14.13;3.30;;;;;;;;;;5023777;28;20048;-59
2022/05/08 05:11:08;;;;;;;18.60;3.42;;;;;;;;;;5021219;28;20138;-58
2022/05/08 05:13:34;;;;;;;7.30;3.58;;;;;;;;;;5021077;28;20025;-58
2022/05/08 05:16:00;;;;;;;8.60;3.63;;;;;;;;;;5015101;28;20504;-58
2022/05/08 05:18:25;;;;;;;8.57;3.58;;;;;;;;;;5024148;28;20690;-58
2022/05/08 05:20:51;;;;;;;7.80;3.58;;;;;;;;;;5019645;28;20057;-58
2022/05/08 05:23:16;;;;;;;13.75;3.10;;;;;;;;;;5021344;28;20034;-59
2022/05/08 05:25:42;;;;;;;7.07;2.55;;;;;;;;;;5027954;28;20044;-58
2022/05/08 05:28:07;;;;;;;6.82;3.15;;;;;;;;;;5021703;28;20033;-59
2022/05/08 05:30:33;;;;;;;6.80;3.05;;;;;;;;;;5019444;28;20065;-58
2022/05/08 05:32:58;;;;;;;7.43;2.67;;;;;;;;;;5024297;28;20037;-59
2022/05/08 05:35:24;;;;;;;8.10;2.97;;;;;;;;;;5022919;28;20515;-59
2022/05/08 05:37:49;;;;;;;8.10;3.20;;;;;;;;;;5023337;28;20496;-59
2022/05/08 05:40:14;;;;;;;14.57;4.03;;;;;;;;;;5019505;28;20444;-59
2022/05/08 05:42:40;;;;;;;9.52;3.75;;;;;;;;;;5019926;28;20045;-59
2022/05/08 05:45:06;;;;;;;6.80;3.20;;;;;;;;;;5018840;28;20115;-59
2022/05/08 05:47:50;;;;;;;7.53;3.63;;;;;;;;;;5018401;28;20053;-59
2022/05/08 05:50:21;;;;;;;6.57;3.25;;;;;;;;;;5020959;28;20072;-58
2022/05/08 05:52:47;;;;;;;12.20;3.60;;;;;;;;;;5022267;28;20032;-59
2022/05/08 05:55:13;;;;;;;5.15;2.90;;;;;;;;;;5032031;28;20033;-59
2022/05/08 05:57:39;;;;;;;9.23;2.95;;;;;;;;;;5016513;28;20525;-59
2022/05/08 06:00:10;;;;;;;11.95;3.08;;;;;;;;;;5009892;28;20037;-59
2022/05/08 06:02:37;;;;;;;12.95;3.53;;;;;;;;;;5014995;28;20041;-59
2022/05/08 06:05:04;;;;;;;8.23;3.38;;;;;;;;;;5022926;28;20033;-59
2022/05/08 06:07:29;;;;;;;12.27;3.20;;;;;;;;;;5025825;28;20555;-59
2022/05/08 06:09:55;;;;;;;10.88;2.67;;;;;;;;;;5025214;28;20057;-59
2022/05/08 06:12:20;;;;;;;9.30;3.30;;;;;;;;;;5020798;28;20033;-59
2022/05/08 06:14:46;;;;;;;11.98;3.58;;;;;;;;;;5024220;28;20033;-59
2022/05/08 06:17:13;;;;;;;9.52;2.83;;;;;;;;;;5030163;28;20028;-59
2022/05/08 06:19:38;;;;;;;8.43;3.58;;;;;;;;;;5023311;28;20404;-59
2022/05/08 06:22:04;;;;;;;11.38;3.25;;;;;;;;;;5024229;28;20065;-59
2022/05/08 06:24:30;;;;;;;10.02;3.22;;;;;;;;;;5030107;28;20041;-59
2022/05/08 06:26:56;;;;;;;9.60;3.25;;;;;;;;;;5033400;28;20041;-57
2022/05/08 06:29:22;;;;;;;12.30;3.17;;;;;;;;;;5025569;28;20064;-59
2022/05/08 06:31:50;;;;;;;9.15;3.20;;;;;;;;;;5017149;28;20038;-59
2022/05/08 06:34:16;;;;;;;7.43;3.17;;;;;;;;;;5025936;28;20038;-58
2022/05/08 06:36:42;;;;;;;13.02;2.92;;;;;;;;;;5019516;28;20442;-58
2022/05/08 06:39:07;;;;;;;15.93;4.03;;;;;;;;;;5016571;28;20048;-58
2022/05/08 06:41:33;;;;;;;11.13;3.35;;;;;;;;;;5032448;28;20041;-58
2022/05/08 06:43:59;;;;;;;8.77;3.25;;;;;;;;;;5022450;28;20033;-58
2022/05/08 06:46:24;;;;;;;9.75;3.63;;;;;;;;;;5027610;28;20042;-58
2022/05/08 06:48:50;;;;;;;14.70;3.90;;;;;;;;;;5016695;28;20467;-58
2022/05/08 06:51:16;;;;;;;16.85;3.88;;;;;;;;;;5023914;28;20127;-58
2022/05/08 06:53:43;;;;;;;11.43;4.93;;;;;;;;;;5020085;28;20095;-58
2022/05/08 06:56:13;;;;;;;7.32;3.45;;;;;;;;;;5033001;28;20083;-58
2022/05/08 07:01:38;;;;;;;13.13;2.83;;;;;;;;;;5027956;28;20044;-58
2022/05/08 07:04:08;;;;;;;10.60;2.88;;;;;;;;;;5023959;28;20037;-58
2022/05/08 07:06:35;;;;;;;11.18;2.90;;;;;;;;;;5029110;28;20029;-58
2022/05/08 07:09:01;;;;;;;12.25;3.05;;;;;;;;;;5023264;28;20387;-58
2022/05/08 07:11:27;;;;;;;11.43;2.92;;;;;;;;;;5028978;28;20406;-58
2022/05/08 07:13:52;;;;;;;6.93;2.45;;;;;;;;;;5026304;28;20072;-58
2022/05/08 07:16:18;;;;;;;13.35;2.65;;;;;;;;;;5028298;28;20583;-58
2022/05/08 07:18:43;;;;;;;10.77;2.75;;;;;;;;;;5017304;28;20741;-58
2022/05/08 07:21:09;;;;;;;8.15;2.65;;;;;;;;;;5024032;28;20105;-58
2022/05/08 07:23:35;;;;;;;3.22;1.60;;;;;;;;;;5021967;28;20037;-58
2022/05/08 07:26:00;;;;;;;6.30;1.75;;;;;;;;;;5028106;28;20037;-58
2022/05/08 07:28:28;;;;;;;7.78;1.27;;;;;;;;;;5022719;28;20447;-58
2022/05/08 07:30:54;;;;;;;4.25;1.60;;;;;;;;;;5026240;28;20045;-58
2022/05/08 07:33:20;;;;;;;4.32;1.58;;;;;;;;;;5025029;28;20096;-58
2022/05/08 07:38:31;;;;;;;6.40;1.48;;;;;;;;;;5024548;28;20108;-58
2022/05/08 07:40:57;;;;;;;4.30;2.25;;;;;;;;;;5028549;28;20029;-58
2022/05/08 07:43:23;;;;;;;7.05;1.38;;;;;;;;;;5028292;28;20067;-58
2022/05/08 07:45:48;;;;;;;8.10;1.80;;;;;;;;;;5022784;28;20069;-58
2022/05/08 07:48:16;;;;;;;5.32;1.60;;;;;;;;;;5023392;28;20247;-58
2022/05/08 07:50:42;;;;;;;9.45;1.92;;;;;;;;;;5024127;28;20117;-59
2022/05/08 07:53:08;;;;;;;9.73;1.70;;;;;;;;;;5021356;28;20042;-58
2022/05/08 07:55:33;;;;;;;7.00;1.60;;;;;;;;;;5026779;28;20032;-58
2022/05/08 07:57:59;;;;;;;5.47;1.42;;;;;;;;;;5020535;28;20056;-59
2022/05/08 08:00:24;;;;;;;6.15;2.15;;;;;;;;;;5012124;28;20045;-59
2022/05/08 08:02:50;;;;;;;7.80;1.92;;;;;;;;;;5023172;28;20318;-58
2022/05/08 08:05:15;;;;;;;4.45;1.70;;;;;;;;;;5024306;28;20064;-58
2022/05/08 08:07:41;;;;;;;4.32;1.70;;;;;;;;;;5024899;28;20322;-58
2022/05/08 08:10:07;;;;;;;6.43;1.80;;;;;;;;;;5023046;28;20040;-58
2022/05/08 08:12:32;;;;;;;3.20;1.55;;;;;;;;;;5025925;28;20669;-58
2022/05/08 08:14:59;;;;;;;5.78;1.58;;;;;;;;;;5022076;28;20280;-58
2022/05/08 08:17:26;;;;;;;7.90;2.10;;;;;;;;;;5026868;28;20415;-58
2022/05/08 08:19:52;;;;;;;6.82;2.17;;;;;;;;;;5019464;28;20215;-58
2022/05/08 08:22:17;;;;;;;4.95;2.15;;;;;;;;;;5015751;28;20034;-58
2022/05/08 08:24:43;;;;;;;8.52;2.60;;;;;;;;;;5026403;28;20029;-59
2022/05/08 08:27:09;;;;;;;13.18;3.08;;;;;;;;;;5023073;28;20035;-58
2022/05/08 08:29:34;;;;;;;13.00;3.20;;;;;;;;;;5016054;28;20060;-59
2022/05/08 08:32:00;;;;;;;11.27;4.40;;;;;;;;;;5023068;28;20089;-58
2022/05/08 08:34:26;;;;;;;13.38;3.67;;;;;;;;;;5027207;28;20080;-56
2022/05/08 08:36:52;;;;;;;11.65;3.60;;;;;;;;;;5023989;28;20040;-58
2022/05/08 08:39:18;;;;;;;13.35;3.70;;;;;;;;;;5023738;28;20033;-58
2022/05/08 08:41:52;;;;;;;11.65;4.30;;;;;;;;;;5023376;28;20029;-58
2022/05/08 08:49:53;;;;;;;10.90;4.00;;;;;;;;;;5024142;28;20099;-59
2022/05/08 08:52:22;;;;;;;12.63;3.97;;;;;;;;;;5021622;28;20034;-58
2022/05/08 08:54:48;;;;;;;8.68;3.40;;;;;;;;;;5021786;28;20063;-58
2022/05/08 08:57:13;;;;;;;12.82;3.83;;;;;;;;;;5026727;28;20377;-58
2022/05/08 08:59:39;;;;;;;10.57;4.18;;;;;;;;;;5021365;28;21122;-58
2022/05/08 09:02:16;;;;;;;12.65;4.45;;;;;;;;;;5024729;28;20048;-58
2022/05/08 09:04:46;;;;;;;9.25;4.57;;;;;;;;;;5025476;28;20064;-57
2022/05/08 09:07:33;;;;;;;11.65;4.53;;;;;;;;;;5019107;28;20059;-58
2022/05/08 09:10:14;;;;;;;12.23;3.70;;;;;;;;;;5025925;28;20033;-57
2022/05/08 09:12:45;;;;;;;13.48;4.18;;;;;;;;;;5021054;28;20518;-58
2022/05/08 09:15:24;;;;;;;9.38;3.78;;;;;;;;;;5012707;28;20025;-58
2022/05/08 09:17:52;;;;;;;11.50;3.95;;;;;;;;;;5026994;28;20040;-58
2022/05/08 09:20:29;;;;;;;7.97;3.60;;;;;;;;;;5024011;28;20040;-57
2022/05/08 09:23:09;;;;;;;15.00;4.43;;;;;;;;;;5025404;28;20400;-58
2022/05/08 09:26:00;;;;;;;14.15;4.03;;;;;;;;;;5022717;28;20025;-58
2022/05/08 09:28:43;;;;;;;12.82;3.92;;;;;;;;;;5015676;28;20025;-58
2022/05/08 09:31:10;;;;;;;13.20;3.75;;;;;;;;;;5022802;28;20047;-58
2022/05/08 09:33:41;;;;;;;9.57;3.40;;;;;;;;;;5021866;28;20479;-58
2022/05/08 09:36:11;;;;;;;10.38;3.38;;;;;;;;;;5025102;28;20028;-58
2022/05/08 09:38:53;;;;;;;11.50;4.22;;;;;;;;;;5020528;28;20040;-57
2022/05/08 09:41:27;;;;;;;9.98;3.40;;;;;;;;;;5026078;28;20041;-57
2022/05/08 09:43:54;;;;;;;9.80;3.08;;;;;;;;;;5018389;28;20039;-58
2022/05/08 09:46:20;;;;;;;13.10;3.63;;;;;;;;;;5021897;28;20057;-58
2022/05/08 09:48:48;;;;;;;6.93;2.78;;;;;;;;;;5024936;28;20041;-58
2022/05/08 09:51:15;;;;;;;13.48;3.08;;;;;;;;;;5021701;28;20087;-58
2022/05/08 09:53:42;;;;;;;10.85;2.72;;;;;;;;;;5026822;28;20036;-58
2022/05/08 09:56:11;;;;;;;8.00;3.00;;;;;;;;;;5028860;28;20037;-58
2022/05/08 09:58:40;;;;;;;9.32;3.00;;;;;;;;;;5016038;28;20631;-58
2022/05/08 10:01:07;;;;;;;10.68;2.28;;;;;;;;;;5022382;28;20065;-58
2022/05/08 10:03:33;;;;;;;6.20;2.03;;;;;;;;;;5023217;28;20041;-58
2022/05/08 10:06:01;;;;;;;7.05;2.15;;;;;;;;;;5022484;28;20029;-58
2022/05/08 10:08:37;;;;;;;3.88;2.20;;;;;;;;;;5003297;28;20463;-58
2022/05/08 10:13:54;;;;;;;9.57;2.30;;;;;;;;;;5019571;28;20091;-58
2022/05/08 10:16:41;;;;;;;9.20;2.72;;;;;;;;;;5023945;28;20041;-58
2022/05/08 10:19:25;;;;;;;11.73;2.83;;;;;;;;;;5013994;28;20025;-58
2022/05/08 10:21:55;;;;;;;6.20;2.30;;;;;;;;;;5022098;28;20039;-58
2022/05/08 10:24:28;;;;;;;6.10;2.40;;;;;;;;;;5021751;28;20680;-58
2022/05/08 10:27:17;;;;;;;9.02;2.55;;;;;;;;;;5025190;28;20034;-58
2022/05/08 10:29:49;;;;;;;9.23;2.83;;;;;;;;;;5019518;28;20504;-58
2022/05/08 10:32:32;;;;;;;8.23;2.22;;;;;;;;;;5023948;28;20049;-58
2022/05/08 10:35:19;;;;;;;10.85;2.28;;;;;;;;;;5013713;28;20076;-56
2022/05/08 10:37:46;;;;;;;6.95;2.45;;;;;;;;;;5019962;28;20036;-58
2022/05/08 10:40:24;;;;;;;11.35;3.20;;;;;;;;;;5024679;28;20037;-57
2022/05/08 10:42:58;;;;;;;11.95;2.97;;;;;;;;;;5019291;28;20120;-57
2022/05/08 10:45:30;;;;;;;8.60;2.92;;;;;;;;;;5017818;28;20773;-56
2022/05/08 10:47:57;;;;;;;8.40;2.70;;;;;;;;;;5017155;28;20033;-56
2022/05/08 10:50:22;;;;;;;9.23;2.75;;;;;;;;;;5023981;28;20041;-58
2022/05/08 10:52:49;;;;;;;7.78;2.55;;;;;;;;;;5021031;28;20040;-57
2022/05/08 10:55:16;;;;;;;8.23;3.00;;;;;;;;;;5027553;28;20676;-57
2022/05/08 10:57:43;;;;;;;11.68;2.78;;;;;;;;;;5023203;28;20105;-56
2022/05/08 11:00:14;;;;;;;9.07;2.95;;;;;;;;;;5018281;28;20464;-57
2022/05/08 11:02:43;;;;;;;7.63;2.72;;;;;;;;;;5032577;28;20042;-57
2022/05/08 11:05:16;;;;;;;8.90;2.83;;;;;;;;;;5025199;28;20029;-57
2022/05/08 11:07:49;;;;;;;10.23;3.10;;;;;;;;;;5014437;28;20099;-57
2022/05/08 11:10:16;;;;;;;11.90;3.05;;;;;;;;;;5028715;28;20033;-57
2022/05/08 11:13:15;;;;;;;7.90;3.10;;;;;;;;;;5030808;28;20521;-56
2022/05/08 11:15:41;;;;;;;15.18;2.90;;;;;;;;;;5035254;28;20563;-57
2022/05/08 11:18:10;;;;;;;15.73;4.68;;;;;;;;;;5025749;28;20029;-56
2022/05/08 11:20:59;;;;;;;11.40;3.55;;;;;;;;;;5022425;28;20084;-57
2022/05/08 11:23:42;;;;;;;16.90;3.60;;;;;;;;;;5023849;28;20029;-56
2022/05/08 11:26:09;;;;;;;9.88;3.80;;;;;;;;;;5022458;28;20030;-56
2022/05/08 11:28:36;;;;;;;9.52;3.10;;;;;;;;;;5029199;28;20098;-56
2022/05/08 11:31:15;;;;;;;14.10;3.88;;;;;;;;;;5018888;28;20767;-56
2022/05/08 11:36:28;;;;;;;10.95;3.33;;;;;;;;;;5022073;28;20083;-56
2022/05/08 11:38:58;;;;;;;16.85;4.13;;;;;;;;;;5022385;28;20541;-57
2022/05/08 11:41:34;;;;;;;8.73;3.72;;;;;;;;;;5026024;28;20599;-57
2022/05/08 11:44:28;;;;;;;10.05;4.20;;;;;;;;;;5021708;28;20029;-57
2022/05/08 11:46:57;;;;;;;12.90;4.15;;;;;;;;;;5020751;28;20050;-57
2022/05/08 11:49:26;;;;;;;14.93;3.92;;;;;;;;;;5023791;28;20061;-57
2022/05/08 11:51:53;;;;;;;10.52;3.70;;;;;;;;;;5018498;28;20033;-57
2022/05/08 11:54:19;;;;;;;10.10;3.38;;;;;;;;;;5020176;28;20035;-56
2022/05/08 11:56:45;;;;;;;5.13;2.50;;;;;;;;;;5024048;28;20560;-57
2022/05/08 11:59:22;;;;;;;5.65;2.30;;;;;;;;;;5023668;28;20116;-56
2022/05/08 12:01:50;;;;;;;9.52;2.80;;;;;;;;;;5016334;28;20034;-55
2022/05/08 12:04:26;;;;;;;5.45;2.35;;;;;;;;;;5026398;28;20111;-57
2022/05/08 12:07:03;;;;;;;10.07;3.10;;;;;;;;;;5021679;28;20041;-56
2022/05/08 12:09:35;;;;;;;10.93;3.38;;;;;;;;;;5025041;28;20029;-56
2022/05/08 12:12:29;;;;;;;10.18;2.50;;;;;;;;;;5017813;28;20045;-57
2022/05/08 12:15:02;;;;;;;12.70;2.88;;;;;;;;;;5020681;28;20488;-56
2022/05/08 12:17:48;;;;;;;10.98;2.58;;;;;;;;;;5028311;28;20044;-56
2022/05/08 12:20:17;;;;;;;8.40;2.30;;;;;;;;;;5023898;28;20065;-55
2022/05/08 12:22:44;;;;;;;9.45;2.22;;;;;;;;;;5026709;28;20497;-57
2022/05/08 12:25:11;;;;;;;7.07;2.38;;;;;;;;;;5020970;28;20037;-56
2022/05/08 12:27:36;;;;;;;9.60;2.25;;;;;;;;;;5023826;28;20112;-57
2022/05/08 12:30:05;;;;;;;7.30;1.75;;;;;;;;;;5027849;28;20120;-57
2022/05/08 12:32:31;;;;;;;5.72;2.00;;;;;;;;;;5026766;28;20029;-57
2022/05/08 12:34:57;;;;;;;4.93;2.05;;;;;;;;;;5023879;28;20094;-56
2022/05/08 12:37:23;;;;;;;3.28;1.63;;;;;;;;;;5026393;28;20496;-56
2022/05/08 12:39:49;;;;;;;4.00;2.22;;;;;;;;;;5026818;28;20095;-56
2022/05/08 12:42:15;;;;;;;6.22;2.00;;;;;;;;;;5026988;28;20029;-56
2022/05/08 12:44:43;;;;;;;7.55;1.90;;;;;;;;;;5025256;28;20049;-56
2022/05/08 12:47:10;;;;;;;6.60;2.55;;;;;;;;;;5019449;28;20050;-56
2022/05/08 12:49:37;;;;;;;8.00;2.38;;;;;;;;;;5023781;28;20029;-57
2022/05/08 12:52:04;;;;;;;8.30;2.38;;;;;;;;;;5022643;28;20033;-56
2022/05/08 12:54:30;;;;;;;8.18;2.30;;;;;;;;;;5024801;28;20599;-56
2022/05/08 12:56:56;;;;;;;9.27;2.55;;;;;;;;;;5027279;28;20187;-57
2022/05/08 13:02:06;;;;;;;4.13;2.03;;;;;;;;;;5020047;28;20040;-56
2022/05/08 13:04:32;;;;;;;3.47;1.65;;;;;;;;;;5019097;28;20033;-57
2022/05/08 13:06:58;;;;;;;4.47;2.15;;;;;;;;;;5022551;28;20483;-56
2022/05/08 13:09:23;;;;;;;3.17;1.25;;;;;;;;;;5027114;28;20567;-56
2022/05/08 13:11:49;;;;;;;7.03;1.67;;;;;;;;;;5026611;28;20080;-56
2022/05/08 13:14:14;;;;;;;4.53;1.67;;;;;;;;;;5022228;28;20780;-56
2022/05/08 13:16:40;;;;;;;4.07;1.50;;;;;;;;;;5024856;28;20466;-56
2022/05/08 13:19:06;;;;;;;4.57;1.20;;;;;;;;;;5022575;28;20029;-55
2022/05/08 13:21:32;;;;;;;3.85;1.80;;;;;;;;;;5022342;28;20547;-56
2022/05/08 13:23:58;;;;;;;6.05;1.17;;;;;;;;;;5024766;28;20024;-56
2022/05/08 13:26:25;;;;;;;3.33;0.80;;;;;;;;;;5024508;28;20148;-55
2022/05/08 13:28:50;;;;;;;3.08;0.77;;;;;;;;;;5021516;28;20025;-58
2022/05/08 13:31:16;;;;;;;3.72;1.00;;;;;;;;;;5023971;28;20105;-55
2022/05/08 13:33:41;;;;;;;1.77;0.60;;;;;;;;;;5020019;28;20038;-56
2022/05/08 13:36:08;;;;;;;2.17;0.80;;;;;;;;;;5019197;28;20057;-56
2022/05/08 13:38:34;;;;;;;5.35;0.98;;;;;;;;;;5020985;28;20022;-56
2022/05/08 13:41:00;;;;;;;3.63;1.02;;;;;;;;;;5021205;28;20032;-56
2022/05/08 13:43:26;;;;;;;4.97;1.52;;;;;;;;;;5024760;28;20064;-56
2022/05/08 13:45:53;;;;;;;5.28;1.10;;;;;;;;;;5017241;28;20053;-56
2022/05/08 13:48:19;;;;;;;2.95;1.10;;;;;;;;;;5025988;28;20025;-55
2022/05/08 13:50:45;;;;;;;2.55;1.00;;;;;;;;;;5022785;28;20057;-56
2022/05/08 13:53:11;;;;;;;3.13;0.90;;;;;;;;;;5020231;28;20057;-55
2022/05/08 13:55:43;;;;;;;7.93;1.38;;;;;;;;;;5025769;28;20067;-54
2022/05/08 13:58:10;;;;;;;4.28;1.40;;;;;;;;;;5021275;28;20033;-54
2022/05/08 14:00:37;;;;;;;2.72;1.35;;;;;;;;;;5019569;28;20025;-55
2022/05/08 14:03:02;;;;;;;3.28;1.42;;;;;;;;;;5024289;28;20034;-55
2022/05/08 14:05:29;;;;;;;4.03;1.58;;;;;;;;;;5020476;28;20484;-56
2022/05/08 14:07:55;;;;;;;2.20;1.27;;;;;;;;;;5025672;28;20508;-57
2022/05/08 14:10:21;;;;;;;4.00;1.20;;;;;;;;;;5006725;28;20053;-56
2022/05/08 14:12:48;;;;;;;6.93;1.38;;;;;;;;;;5024468;28;20026;-57
2022/05/08 14:15:14;;;;;;;4.22;1.40;;;;;;;;;;5016378;28;20044;-56
2022/05/08 14:17:40;;;;;;;4.13;1.13;;;;;;;;;;5023107;28;20676;-56
2022/05/08 14:20:07;;;;;;;4.25;1.52;;;;;;;;;;5013390;28;20570;-56
2022/05/08 14:22:32;;;;;;;9.73;1.85;;;;;;;;;;5021255;28;20072;-56
2022/05/08 14:25:01;;;;;;;5.40;2.40;;;;;;;;;;5024758;28;20069;-56
2022/05/08 14:27:27;;;;;;;6.72;2.47;;;;;;;;;;5023563;28;20471;-56
2022/05/08 14:29:53;;;;;;;11.10;2.72;;;;;;;;;;5016653;28;20056;-57
2022/05/08 14:37:47;;;;;;;7.35;2.42;;;;;;;;;;5024348;28;20123;-57
2022/05/08 14:40:13;;;;;;;6.18;1.55;;;;;;;;;;5033580;28;20052;-57
2022/05/08 14:42:45;;;;;;;6.68;1.60;;;;;;;;;;5023336;28;20033;-57
2022/05/08 14:45:10;;;;;;;;;;;;;;;;;;5021167;28;20025;-57
2022/05/08 14:47:36;;;;;;;3.00;1.08;;;;;;;;;;5023404;28;19922;-56
2022/05/08 14:50:03;;;;;;;3.05;1.17;;;;;;;;;;5021723;28;20590;-57
2022/05/08 14:52:28;;;;;;;2.97;1.00;;;;;;;;;;5028648;28;20038;-56
2022/05/08 14:54:54;;;;;;;6.05;1.00;;;;;;;;;;5026430;28;20067;-58
2022/05/08 14:57:20;;;;;;;3.42;0.90;;;;;;;;;;5024629;28;20460;-60
2022/05/08 14:59:45;;;;;;;5.97;0.93;;;;;;;;;;5027641;28;20072;-58
2022/05/08 15:02:11;;;;;;;3.00;0.82;;;;;;;;;;5020476;28;20029;-58
2022/05/08 15:04:36;;;;;;;4.63;1.10;;;;;;;;;;5026397;28;20037;-58
2022/05/08 15:07:03;;;;;;;3.25;1.10;;;;;;;;;;5031212;28;20566;-58
2022/05/08 15:09:29;;;;;;;4.35;1.73;;;;;;;;;;5034147;28;20040;-58
2022/05/08 15:11:55;;;;;;;3.58;1.40;;;;;;;;;;5029464;28;20045;-58
2022/05/08 15:14:21;;;;;;;3.03;1.50;;;;;;;;;;5022345;28;20728;-58
2022/05/08 15:16:47;;;;;;;4.60;1.67;;;;;;;;;;5026240;28;20025;-58
2022/05/08 15:19:13;;;;;;;6.78;1.30;;;;;;;;;;5019622;28;20045;-57